Trisler, Kentucky
Current Conditions -  °F | °C
As of 3:56 PM on Monday 24 Nov 2014 (Local Time) from KOWB Reporting Station
Broken Clouds Broken Clouds  
Wind Chill: 44°   Ceiling: 4900
Heat Index: 49°   Visibility: 10mi
Dew Point: 36°   Wind: 12mph
Humidity: 61%   Direction: 240°WSW
Pressure: 29.83"   Gusts: 18mph
Location:  37.6216°N, 86.7165°W
Report Text: KOWB 242156Z 24010G16KT 10SM BKN049 09/02 A2983 RMK AO2 T00940022 BKN V OVC SLP099
Loading
Personal Weather Stations






























Interactive Weather Map New forecast layout! Learn more

10-Day Weather Forecast

Advertisements
Track Severe Weather on mobile